sensor_id;sensor_type;location;lat;lon;timestamp;P1;durP1;ratioP1;P2;durP2;ratioP2
17864;SDS011;9058;52.018;4.202;2022-07-29T00:02:14;1.05;;;0.75;;
17864;SDS011;9058;52.018;4.202;2022-07-29T00:04:40;1.50;;;0.88;;
17864;SDS011;9058;52.018;4.202;2022-07-29T00:07:06;2.47;;;1.17;;
17864;SDS011;9058;52.018;4.202;2022-07-29T00:09:33;1.67;;;1.10;;
17864;SDS011;9058;52.018;4.202;2022-07-29T00:12:01;3.47;;;1.10;;
17864;SDS011;9058;52.018;4.202;2022-07-29T00:14:28;3.30;;;1.10;;
17864;SDS011;9058;52.018;4.202;2022-07-29T00:16:54;1.75;;;1.00;;
17864;SDS011;9058;52.018;4.202;2022-07-29T00:19:21;3.40;;;1.23;;
17864;SDS011;9058;52.018;4.202;2022-07-29T00:21:48;1.63;;;1.00;;
17864;SDS011;9058;52.018;4.202;2022-07-29T00:24:14;3.70;;;1.13;;
17864;SDS011;9058;52.018;4.202;2022-07-29T00:26:42;3.60;;;1.00;;
17864;SDS011;9058;52.018;4.202;2022-07-29T00:29:09;3.03;;;1.08;;
17864;SDS011;9058;52.018;4.202;2022-07-29T00:31:36;2.63;;;1.48;;
17864;SDS011;9058;52.018;4.202;2022-07-29T00:34:02;2.83;;;0.90;;
17864;SDS011;9058;52.018;4.202;2022-07-29T00:36:29;3.50;;;1.25;;
17864;SDS011;9058;52.018;4.202;2022-07-29T00:38:54;2.13;;;1.45;;
17864;SDS011;9058;52.018;4.202;2022-07-29T00:41:20;3.03;;;1.10;;
17864;SDS011;9058;52.018;4.202;2022-07-29T00:43:47;2.67;;;1.30;;
17864;SDS011;9058;52.018;4.202;2022-07-29T00:46:14;3.28;;;1.10;;
17864;SDS011;9058;52.018;4.202;2022-07-29T00:48:41;3.47;;;2.22;;
17864;SDS011;9058;52.018;4.202;2022-07-29T00:51:07;2.38;;;1.20;;
17864;SDS011;9058;52.018;4.202;2022-07-29T00:53:35;1.25;;;1.00;;
17864;SDS011;9058;52.018;4.202;2022-07-29T00:56:01;2.60;;;1.13;;
17864;SDS011;9058;52.018;4.202;2022-07-29T00:58:28;2.72;;;1.10;;
17864;SDS011;9058;52.018;4.202;2022-07-29T01:00:54;5.15;;;1.33;;
17864;SDS011;9058;52.018;4.202;2022-07-29T01:03:22;3.88;;;1.65;;
17864;SDS011;9058;52.018;4.202;2022-07-29T01:05:49;2.00;;;1.23;;
17864;SDS011;9058;52.018;4.202;2022-07-29T01:08:15;3.38;;;1.15;;
17864;SDS011;9058;52.018;4.202;2022-07-29T01:10:42;3.58;;;1.50;;
17864;SDS011;9058;52.018;4.202;2022-07-29T01:13:09;3.17;;;1.08;;
17864;SDS011;9058;52.018;4.202;2022-07-29T01:15:37;3.67;;;1.20;;
17864;SDS011;9058;52.018;4.202;2022-07-29T01:18:07;3.40;;;1.20;;
17864;SDS011;9058;52.018;4.202;2022-07-29T01:20:44;2.80;;;1.23;;
17864;SDS011;9058;52.018;4.202;2022-07-29T01:23:23;2.67;;;1.10;;
17864;SDS011;9058;52.018;4.202;2022-07-29T01:26:00;3.20;;;1.30;;
17864;SDS011;9058;52.018;4.202;2022-07-29T01:28:35;2.08;;;1.20;;
17864;SDS011;9058;52.018;4.202;2022-07-29T01:31:04;2.50;;;1.38;;
17864;SDS011;9058;52.018;4.202;2022-07-29T01:33:31;4.47;;;1.20;;
17864;SDS011;9058;52.018;4.202;2022-07-29T01:36:16;3.58;;;1.35;;
17864;SDS011;9058;52.018;4.202;2022-07-29T01:38:44;1.77;;;1.30;;
17864;SDS011;9058;52.018;4.202;2022-07-29T01:41:16;3.30;;;1.10;;
17864;SDS011;9058;52.018;4.202;2022-07-29T01:43:47;1.58;;;1.10;;
17864;SDS011;9058;52.018;4.202;2022-07-29T01:46:17;2.38;;;1.10;;
17864;SDS011;9058;52.018;4.202;2022-07-29T01:48:47;2.08;;;1.38;;
17864;SDS011;9058;52.018;4.202;2022-07-29T01:51:14;2.08;;;1.10;;
17864;SDS011;9058;52.018;4.202;2022-07-29T01:53:44;5.63;;;1.30;;
17864;SDS011;9058;52.018;4.202;2022-07-29T01:56:12;2.55;;;1.38;;
17864;SDS011;9058;52.018;4.202;2022-07-29T01:58:40;3.20;;;1.45;;
17864;SDS011;9058;52.018;4.202;2022-07-29T02:01:09;2.72;;;1.48;;
17864;SDS011;9058;52.018;4.202;2022-07-29T02:03:37;3.55;;;1.40;;
17864;SDS011;9058;52.018;4.202;2022-07-29T02:06:04;4.28;;;1.45;;
17864;SDS011;9058;52.018;4.202;2022-07-29T02:08:32;2.35;;;1.50;;
17864;SDS011;9058;52.018;4.202;2022-07-29T02:10:59;2.33;;;1.40;;
17864;SDS011;9058;52.018;4.202;2022-07-29T02:13:27;2.33;;;1.20;;
17864;SDS011;9058;52.018;4.202;2022-07-29T02:15:55;1.20;;;1.10;;
17864;SDS011;9058;52.018;4.202;2022-07-29T02:18:23;2.20;;;1.05;;
17864;SDS011;9058;52.018;4.202;2022-07-29T02:20:52;1.42;;;1.20;;
17864;SDS011;9058;52.018;4.202;2022-07-29T02:23:20;1.63;;;1.25;;
17864;SDS011;9058;52.018;4.202;2022-07-29T02:25:48;3.05;;;1.50;;
17864;SDS011;9058;52.018;4.202;2022-07-29T02:28:15;7.40;;;1.25;;
17864;SDS011;9058;52.018;4.202;2022-07-29T02:30:42;3.85;;;1.20;;
17864;SDS011;9058;52.018;4.202;2022-07-29T02:33:09;2.15;;;1.35;;
17864;SDS011;9058;52.018;4.202;2022-07-29T02:35:40;3.10;;;1.23;;
17864;SDS011;9058;52.018;4.202;2022-07-29T02:38:07;2.65;;;1.33;;
17864;SDS011;9058;52.018;4.202;2022-07-29T02:40:51;3.75;;;1.48;;
17864;SDS011;9058;52.018;4.202;2022-07-29T02:43:18;2.38;;;1.30;;
17864;SDS011;9058;52.018;4.202;2022-07-29T02:45:46;1.30;;;1.20;;
17864;SDS011;9058;52.018;4.202;2022-07-29T02:48:13;2.55;;;1.00;;
17864;SDS011;9058;52.018;4.202;2022-07-29T02:50:44;3.83;;;1.52;;
17864;SDS011;9058;52.018;4.202;2022-07-29T02:53:12;2.70;;;1.48;;
17864;SDS011;9058;52.018;4.202;2022-07-29T02:55:43;1.90;;;1.33;;
17864;SDS011;9058;52.018;4.202;2022-07-29T02:58:13;1.50;;;1.10;;
17864;SDS011;9058;52.018;4.202;2022-07-29T03:00:41;6.15;;;1.70;;
17864;SDS011;9058;52.018;4.202;2022-07-29T03:03:11;3.53;;;1.58;;
17864;SDS011;9058;52.018;4.202;2022-07-29T03:05:38;4.10;;;1.13;;
17864;SDS011;9058;52.018;4.202;2022-07-29T03:08:08;2.22;;;1.52;;
17864;SDS011;9058;52.018;4.202;2022-07-29T03:10:35;2.47;;;1.10;;
17864;SDS011;9058;52.018;4.202;2022-07-29T03:13:03;1.30;;;1.20;;
17864;SDS011;9058;52.018;4.202;2022-07-29T03:15:31;3.70;;;1.55;;
17864;SDS011;9058;52.018;4.202;2022-07-29T03:17:58;2.90;;;1.23;;
17864;SDS011;9058;52.018;4.202;2022-07-29T03:20:35;1.30;;;1.20;;
17864;SDS011;9058;52.018;4.202;2022-07-29T03:23:02;2.50;;;1.50;;
17864;SDS011;9058;52.018;4.202;2022-07-29T03:25:32;1.50;;;1.40;;
17864;SDS011;9058;52.018;4.202;2022-07-29T03:27:58;3.92;;;1.55;;
17864;SDS011;9058;52.018;4.202;2022-07-29T03:30:25;2.78;;;1.33;;
17864;SDS011;9058;52.018;4.202;2022-07-29T03:32:52;2.40;;;1.52;;
17864;SDS011;9058;52.018;4.202;2022-07-29T03:35:18;2.10;;;1.60;;
17864;SDS011;9058;52.018;4.202;2022-07-29T03:37:45;2.13;;;1.52;;
17864;SDS011;9058;52.018;4.202;2022-07-29T03:40:13;3.97;;;1.85;;
17864;SDS011;9058;52.018;4.202;2022-07-29T03:42:41;3.53;;;1.70;;
17864;SDS011;9058;52.018;4.202;2022-07-29T03:45:09;2.70;;;1.40;;
17864;SDS011;9058;52.018;4.202;2022-07-29T03:47:38;3.00;;;1.80;;
17864;SDS011;9058;52.018;4.202;2022-07-29T03:50:10;3.70;;;1.77;;
17864;SDS011;9058;52.018;4.202;2022-07-29T03:52:37;3.67;;;2.00;;
17864;SDS011;9058;52.018;4.202;2022-07-29T03:55:03;2.90;;;1.95;;
17864;SDS011;9058;52.018;4.202;2022-07-29T03:57:30;2.25;;;1.70;;
17864;SDS011;9058;52.018;4.202;2022-07-29T04:00:03;3.65;;;1.92;;
17864;SDS011;9058;52.018;4.202;2022-07-29T04:02:31;6.88;;;2.10;;
17864;SDS011;9058;52.018;4.202;2022-07-29T04:04:57;6.40;;;2.20;;
17864;SDS011;9058;52.018;4.202;2022-07-29T04:07:24;4.63;;;2.13;;
17864;SDS011;9058;52.018;4.202;2022-07-29T04:09:50;2.58;;;1.65;;
17864;SDS011;9058;52.018;4.202;2022-07-29T04:12:16;2.55;;;1.73;;
17864;SDS011;9058;52.018;4.202;2022-07-29T04:14:43;2.30;;;2.10;;
17864;SDS011;9058;52.018;4.202;2022-07-29T04:17:11;4.70;;;2.10;;
17864;SDS011;9058;52.018;4.202;2022-07-29T04:19:37;3.22;;;1.85;;
17864;SDS011;9058;52.018;4.202;2022-07-29T04:22:03;2.75;;;1.90;;
17864;SDS011;9058;52.018;4.202;2022-07-29T04:24:30;5.53;;;1.63;;
17864;SDS011;9058;52.018;4.202;2022-07-29T04:26:56;4.75;;;2.10;;
17864;SDS011;9058;52.018;4.202;2022-07-29T04:29:23;3.35;;;2.08;;
17864;SDS011;9058;52.018;4.202;2022-07-29T04:31:49;4.00;;;2.30;;
17864;SDS011;9058;52.018;4.202;2022-07-29T04:34:18;2.30;;;2.10;;
17864;SDS011;9058;52.018;4.202;2022-07-29T04:36:46;3.95;;;1.80;;
17864;SDS011;9058;52.018;4.202;2022-07-29T04:39:12;3.60;;;1.88;;
17864;SDS011;9058;52.018;4.202;2022-07-29T04:41:39;4.32;;;1.80;;
17864;SDS011;9058;52.018;4.202;2022-07-29T04:44:05;4.47;;;2.08;;
17864;SDS011;9058;52.018;4.202;2022-07-29T04:46:31;3.20;;;1.95;;
17864;SDS011;9058;52.018;4.202;2022-07-29T04:48:58;2.80;;;1.95;;
17864;SDS011;9058;52.018;4.202;2022-07-29T04:51:26;3.25;;;1.95;;
17864;SDS011;9058;52.018;4.202;2022-07-29T04:53:52;4.05;;;2.25;;
17864;SDS011;9058;52.018;4.202;2022-07-29T04:56:18;3.83;;;2.00;;
17864;SDS011;9058;52.018;4.202;2022-07-29T04:58:45;6.43;;;1.83;;
17864;SDS011;9058;52.018;4.202;2022-07-29T05:01:13;3.40;;;2.05;;
17864;SDS011;9058;52.018;4.202;2022-07-29T05:03:40;2.88;;;1.98;;
17864;SDS011;9058;52.018;4.202;2022-07-29T05:06:07;4.72;;;1.80;;
17864;SDS011;9058;52.018;4.202;2022-07-29T05:08:39;2.58;;;1.80;;
17864;SDS011;9058;52.018;4.202;2022-07-29T05:11:05;4.38;;;2.22;;
17864;SDS011;9058;52.018;4.202;2022-07-29T05:13:32;5.32;;;2.05;;
17864;SDS011;9058;52.018;4.202;2022-07-29T05:15:58;3.63;;;1.58;;
17864;SDS011;9058;52.018;4.202;2022-07-29T05:18:26;2.83;;;1.95;;
17864;SDS011;9058;52.018;4.202;2022-07-29T05:20:52;2.83;;;1.80;;
17864;SDS011;9058;52.018;4.202;2022-07-29T05:23:19;4.22;;;2.00;;
17864;SDS011;9058;52.018;4.202;2022-07-29T05:25:47;7.35;;;1.70;;
17864;SDS011;9058;52.018;4.202;2022-07-29T05:28:15;4.22;;;1.20;;
17864;SDS011;9058;52.018;4.202;2022-07-29T05:30:41;3.75;;;1.50;;
17864;SDS011;9058;52.018;4.202;2022-07-29T05:33:09;2.58;;;1.48;;
17864;SDS011;9058;52.018;4.202;2022-07-29T05:35:36;4.53;;;1.77;;
17864;SDS011;9058;52.018;4.202;2022-07-29T05:38:03;3.63;;;1.30;;
17864;SDS011;9058;52.018;4.202;2022-07-29T05:40:29;5.90;;;1.63;;
17864;SDS011;9058;52.018;4.202;2022-07-29T05:42:58;2.97;;;1.92;;
17864;SDS011;9058;52.018;4.202;2022-07-29T05:45:25;2.10;;;1.55;;
17864;SDS011;9058;52.018;4.202;2022-07-29T05:47:52;3.92;;;1.58;;
17864;SDS011;9058;52.018;4.202;2022-07-29T05:50:18;4.82;;;1.55;;
17864;SDS011;9058;52.018;4.202;2022-07-29T05:52:47;5.30;;;1.90;;
17864;SDS011;9058;52.018;4.202;2022-07-29T05:55:13;3.85;;;1.40;;
17864;SDS011;9058;52.018;4.202;2022-07-29T05:57:40;5.25;;;1.42;;
17864;SDS011;9058;52.018;4.202;2022-07-29T06:00:10;2.65;;;1.25;;
17864;SDS011;9058;52.018;4.202;2022-07-29T06:02:36;4.32;;;1.88;;
17864;SDS011;9058;52.018;4.202;2022-07-29T06:05:04;7.43;;;1.75;;
17864;SDS011;9058;52.018;4.202;2022-07-29T06:07:30;4.47;;;1.50;;
17864;SDS011;9058;52.018;4.202;2022-07-29T06:09:57;4.50;;;1.50;;
17864;SDS011;9058;52.018;4.202;2022-07-29T06:12:24;1.92;;;1.23;;
17864;SDS011;9058;52.018;4.202;2022-07-29T06:14:51;3.90;;;1.40;;
17864;SDS011;9058;52.018;4.202;2022-07-29T06:17:19;4.10;;;1.88;;
17864;SDS011;9058;52.018;4.202;2022-07-29T06:19:45;4.93;;;1.30;;
17864;SDS011;9058;52.018;4.202;2022-07-29T06:22:12;8.00;;;1.52;;
17864;SDS011;9058;52.018;4.202;2022-07-29T06:24:40;2.17;;;1.35;;
17864;SDS011;9058;52.018;4.202;2022-07-29T06:27:08;5.68;;;1.45;;
17864;SDS011;9058;52.018;4.202;2022-07-29T06:29:35;6.18;;;1.65;;
17864;SDS011;9058;52.018;4.202;2022-07-29T06:32:01;2.88;;;1.50;;
17864;SDS011;9058;52.018;4.202;2022-07-29T06:34:29;6.93;;;1.55;;
17864;SDS011;9058;52.018;4.202;2022-07-29T06:36:56;4.30;;;1.70;;
17864;SDS011;9058;52.018;4.202;2022-07-29T06:39:22;2.55;;;1.40;;
17864;SDS011;9058;52.018;4.202;2022-07-29T06:41:49;2.95;;;1.45;;
17864;SDS011;9058;52.018;4.202;2022-07-29T06:44:15;3.95;;;1.40;;
17864;SDS011;9058;52.018;4.202;2022-07-29T06:46:42;5.70;;;1.45;;
17864;SDS011;9058;52.018;4.202;2022-07-29T06:49:09;3.03;;;1.65;;
17864;SDS011;9058;52.018;4.202;2022-07-29T06:51:36;5.05;;;2.38;;
17864;SDS011;9058;52.018;4.202;2022-07-29T06:54:03;7.10;;;1.50;;
17864;SDS011;9058;52.018;4.202;2022-07-29T06:56:30;2.42;;;1.52;;
17864;SDS011;9058;52.018;4.202;2022-07-29T06:58:57;2.63;;;1.38;;
17864;SDS011;9058;52.018;4.202;2022-07-29T07:01:23;3.80;;;1.67;;
17864;SDS011;9058;52.018;4.202;2022-07-29T07:03:50;2.13;;;1.30;;
17864;SDS011;9058;52.018;4.202;2022-07-29T07:06:16;3.58;;;1.35;;
17864;SDS011;9058;52.018;4.202;2022-07-29T07:08:45;2.40;;;1.35;;
17864;SDS011;9058;52.018;4.202;2022-07-29T07:11:11;3.83;;;1.45;;
17864;SDS011;9058;52.018;4.202;2022-07-29T07:13:41;1.95;;;1.30;;
17864;SDS011;9058;52.018;4.202;2022-07-29T07:16:07;1.45;;;1.10;;
17864;SDS011;9058;52.018;4.202;2022-07-29T07:18:34;4.80;;;1.48;;
17864;SDS011;9058;52.018;4.202;2022-07-29T07:21:01;1.92;;;1.23;;
17864;SDS011;9058;52.018;4.202;2022-07-29T07:23:30;5.40;;;1.58;;
17864;SDS011;9058;52.018;4.202;2022-07-29T07:25:57;3.53;;;1.25;;
17864;SDS011;9058;52.018;4.202;2022-07-29T07:28:24;3.95;;;1.40;;
17864;SDS011;9058;52.018;4.202;2022-07-29T07:30:50;3.78;;;1.52;;
17864;SDS011;9058;52.018;4.202;2022-07-29T07:33:17;3.55;;;1.55;;
17864;SDS011;9058;52.018;4.202;2022-07-29T07:35:43;2.85;;;1.10;;
17864;SDS011;9058;52.018;4.202;2022-07-29T07:38:10;3.53;;;1.27;;
17864;SDS011;9058;52.018;4.202;2022-07-29T07:40:36;2.45;;;1.02;;
17864;SDS011;9058;52.018;4.202;2022-07-29T07:43:04;2.25;;;1.20;;
17864;SDS011;9058;52.018;4.202;2022-07-29T07:45:30;5.30;;;1.25;;
17864;SDS011;9058;52.018;4.202;2022-07-29T07:47:58;4.22;;;1.30;;
17864;SDS011;9058;52.018;4.202;2022-07-29T07:50:25;1.80;;;1.05;;
17864;SDS011;9058;52.018;4.202;2022-07-29T07:52:52;2.45;;;1.27;;
17864;SDS011;9058;52.018;4.202;2022-07-29T07:55:20;2.63;;;1.20;;
17864;SDS011;9058;52.018;4.202;2022-07-29T07:57:46;4.28;;;1.10;;
17864;SDS011;9058;52.018;4.202;2022-07-29T08:00:15;2.47;;;1.30;;
17864;SDS011;9058;52.018;4.202;2022-07-29T08:02:42;2.75;;;1.10;;
17864;SDS011;9058;52.018;4.202;2022-07-29T08:05:10;3.03;;;1.23;;
17864;SDS011;9058;52.018;4.202;2022-07-29T08:07:37;2.45;;;1.30;;
17864;SDS011;9058;52.018;4.202;2022-07-29T08:10:03;3.55;;;1.10;;
17864;SDS011;9058;52.018;4.202;2022-07-29T08:12:30;1.35;;;1.00;;
17864;SDS011;9058;52.018;4.202;2022-07-29T08:14:56;2.92;;;1.13;;
17864;SDS011;9058;52.018;4.202;2022-07-29T08:17:24;3.55;;;1.10;;
17864;SDS011;9058;52.018;4.202;2022-07-29T08:19:51;3.55;;;1.25;;
17864;SDS011;9058;52.018;4.202;2022-07-29T08:22:17;3.70;;;1.40;;
17864;SDS011;9058;52.018;4.202;2022-07-29T08:24:44;3.85;;;1.15;;
17864;SDS011;9058;52.018;4.202;2022-07-29T08:27:17;4.28;;;1.15;;
17864;SDS011;9058;52.018;4.202;2022-07-29T08:29:43;3.78;;;1.20;;
17864;SDS011;9058;52.018;4.202;2022-07-29T08:32:09;3.88;;;1.40;;
17864;SDS011;9058;52.018;4.202;2022-07-29T08:34:37;2.85;;;1.52;;
17864;SDS011;9058;52.018;4.202;2022-07-29T08:37:03;3.58;;;1.17;;
17864;SDS011;9058;52.018;4.202;2022-07-29T08:39:30;2.03;;;1.02;;
17864;SDS011;9058;52.018;4.202;2022-07-29T08:41:56;4.35;;;1.30;;
17864;SDS011;9058;52.018;4.202;2022-07-29T08:44:23;1.80;;;1.00;;
17864;SDS011;9058;52.018;4.202;2022-07-29T08:46:50;4.35;;;1.48;;
17864;SDS011;9058;52.018;4.202;2022-07-29T08:49:17;3.22;;;1.45;;
17864;SDS011;9058;52.018;4.202;2022-07-29T08:51:44;4.03;;;1.30;;
17864;SDS011;9058;52.018;4.202;2022-07-29T08:54:11;3.85;;;1.77;;
17864;SDS011;9058;52.018;4.202;2022-07-29T08:56:42;3.55;;;1.20;;
17864;SDS011;9058;52.018;4.202;2022-07-29T08:59:08;4.32;;;1.33;;
17864;SDS011;9058;52.018;4.202;2022-07-29T09:01:36;3.22;;;1.23;;
17864;SDS011;9058;52.018;4.202;2022-07-29T09:04:03;2.58;;;1.08;;
17864;SDS011;9058;52.018;4.202;2022-07-29T09:06:30;3.60;;;1.27;;
17864;SDS011;9058;52.018;4.202;2022-07-29T09:09:00;1.30;;;1.20;;
17864;SDS011;9058;52.018;4.202;2022-07-29T09:11:26;5.93;;;1.52;;
17864;SDS011;9058;52.018;4.202;2022-07-29T09:13:53;3.65;;;1.83;;
17864;SDS011;9058;52.018;4.202;2022-07-29T09:16:21;7.82;;;2.17;;
17864;SDS011;9058;52.018;4.202;2022-07-29T09:18:47;8.95;;;1.92;;
17864;SDS011;9058;52.018;4.202;2022-07-29T09:21:14;6.22;;;2.00;;
17864;SDS011;9058;52.018;4.202;2022-07-29T09:24:03;9.98;;;2.50;;
17864;SDS011;9058;52.018;4.202;2022-07-29T09:26:30;6.85;;;1.85;;
17864;SDS011;9058;52.018;4.202;2022-07-29T09:28:58;3.50;;;1.73;;
17864;SDS011;9058;52.018;4.202;2022-07-29T09:31:32;5.68;;;2.33;;
17864;SDS011;9058;52.018;4.202;2022-07-29T09:33:59;5.57;;;1.90;;
17864;SDS011;9058;52.018;4.202;2022-07-29T09:36:27;9.70;;;2.10;;
17864;SDS011;9058;52.018;4.202;2022-07-29T09:38:57;7.43;;;2.33;;
17864;SDS011;9058;52.018;4.202;2022-07-29T09:41:26;5.22;;;2.35;;
17864;SDS011;9058;52.018;4.202;2022-07-29T09:43:53;8.05;;;2.40;;
17864;SDS011;9058;52.018;4.202;2022-07-29T09:46:20;8.27;;;2.60;;
17864;SDS011;9058;52.018;4.202;2022-07-29T09:48:48;9.07;;;2.78;;
17864;SDS011;9058;52.018;4.202;2022-07-29T09:51:31;6.00;;;1.88;;
17864;SDS011;9058;52.018;4.202;2022-07-29T09:53:57;11.32;;;2.97;;
17864;SDS011;9058;52.018;4.202;2022-07-29T09:56:39;5.60;;;2.75;;
17864;SDS011;9058;52.018;4.202;2022-07-29T09:59:06;8.65;;;3.00;;
17864;SDS011;9058;52.018;4.202;2022-07-29T10:01:33;7.32;;;2.08;;
17864;SDS011;9058;52.018;4.202;2022-07-29T10:04:01;14.63;;;4.40;;
17864;SDS011;9058;52.018;4.202;2022-07-29T10:06:27;9.23;;;2.92;;
17864;SDS011;9058;52.018;4.202;2022-07-29T10:08:53;6.35;;;2.20;;
17864;SDS011;9058;52.018;4.202;2022-07-29T10:11:20;12.13;;;3.78;;
17864;SDS011;9058;52.018;4.202;2022-07-29T10:13:48;10.63;;;3.15;;
17864;SDS011;9058;52.018;4.202;2022-07-29T10:16:15;15.10;;;3.13;;
17864;SDS011;9058;52.018;4.202;2022-07-29T10:18:43;8.13;;;2.55;;
17864;SDS011;9058;52.018;4.202;2022-07-29T10:21:11;6.32;;;2.60;;
17864;SDS011;9058;52.018;4.202;2022-07-29T10:23:38;12.80;;;4.30;;
17864;SDS011;9058;52.018;4.202;2022-07-29T10:26:04;16.02;;;4.90;;
17864;SDS011;9058;52.018;4.202;2022-07-29T10:28:32;8.80;;;3.70;;
17864;SDS011;9058;52.018;4.202;2022-07-29T10:31:02;10.55;;;3.30;;
17864;SDS011;9058;52.018;4.202;2022-07-29T10:33:33;15.50;;;4.75;;
17864;SDS011;9058;52.018;4.202;2022-07-29T10:36:07;10.40;;;3.50;;
17864;SDS011;9058;52.018;4.202;2022-07-29T10:38:41;8.55;;;3.50;;
17864;SDS011;9058;52.018;4.202;2022-07-29T10:41:12;8.60;;;2.40;;
17864;SDS011;9058;52.018;4.202;2022-07-29T10:43:53;21.38;;;5.55;;
17864;SDS011;9058;52.018;4.202;2022-07-29T10:46:21;15.98;;;5.00;;
17864;SDS011;9058;52.018;4.202;2022-07-29T10:49:04;11.07;;;3.85;;
17864;SDS011;9058;52.018;4.202;2022-07-29T10:54:12;8.95;;;3.10;;
17864;SDS011;9058;52.018;4.202;2022-07-29T10:56:38;9.77;;;3.67;;
17864;SDS011;9058;52.018;4.202;2022-07-29T10:59:23;17.30;;;4.88;;
17864;SDS011;9058;52.018;4.202;2022-07-29T11:01:52;10.00;;;3.85;;
17864;SDS011;9058;52.018;4.202;2022-07-29T11:07:06;8.80;;;3.28;;
17864;SDS011;9058;52.018;4.202;2022-07-29T11:09:33;5.82;;;3.53;;
17864;SDS011;9058;52.018;4.202;2022-07-29T11:12:00;14.40;;;4.10;;
17864;SDS011;9058;52.018;4.202;2022-07-29T11:17:13;5.85;;;2.50;;
17864;SDS011;9058;52.018;4.202;2022-07-29T11:19:39;15.38;;;4.43;;
17864;SDS011;9058;52.018;4.202;2022-07-29T11:22:07;13.10;;;4.00;;
17864;SDS011;9058;52.018;4.202;2022-07-29T11:24:34;12.77;;;4.13;;
17864;SDS011;9058;52.018;4.202;2022-07-29T11:27:07;22.42;;;6.10;;
17864;SDS011;9058;52.018;4.202;2022-07-29T11:29:35;17.05;;;5.47;;
17864;SDS011;9058;52.018;4.202;2022-07-29T11:32:10;17.25;;;4.82;;
17864;SDS011;9058;52.018;4.202;2022-07-29T11:34:39;10.90;;;4.22;;
17864;SDS011;9058;52.018;4.202;2022-07-29T11:37:13;12.65;;;3.70;;
17864;SDS011;9058;52.018;4.202;2022-07-29T11:39:41;10.73;;;3.63;;
17864;SDS011;9058;52.018;4.202;2022-07-29T11:44:56;15.98;;;4.43;;
17864;SDS011;9058;52.018;4.202;2022-07-29T11:47:23;10.55;;;2.92;;
17864;SDS011;9058;52.018;4.202;2022-07-29T11:49:50;15.57;;;5.80;;
17864;SDS011;9058;52.018;4.202;2022-07-29T11:52:17;14.30;;;5.18;;
17864;SDS011;9058;52.018;4.202;2022-07-29T11:54:44;16.73;;;5.35;;
17864;SDS011;9058;52.018;4.202;2022-07-29T11:57:10;9.88;;;3.45;;
17864;SDS011;9058;52.018;4.202;2022-07-29T11:59:38;19.08;;;6.38;;
17864;SDS011;9058;52.018;4.202;2022-07-29T12:02:06;8.43;;;4.35;;
17864;SDS011;9058;52.018;4.202;2022-07-29T12:04:33;13.70;;;5.13;;
17864;SDS011;9058;52.018;4.202;2022-07-29T12:07:01;12.73;;;5.22;;
17864;SDS011;9058;52.018;4.202;2022-07-29T12:09:27;10.93;;;6.13;;
17864;SDS011;9058;52.018;4.202;2022-07-29T12:11:56;19.27;;;7.30;;
17864;SDS011;9058;52.018;4.202;2022-07-29T12:14:28;8.52;;;6.45;;
17864;SDS011;9058;52.018;4.202;2022-07-29T12:16:55;20.13;;;8.07;;
17864;SDS011;9058;52.018;4.202;2022-07-29T12:19:21;12.20;;;6.47;;
17864;SDS011;9058;52.018;4.202;2022-07-29T12:21:50;23.70;;;7.07;;
17864;SDS011;9058;52.018;4.202;2022-07-29T12:24:19;12.10;;;4.63;;
17864;SDS011;9058;52.018;4.202;2022-07-29T12:26:49;13.77;;;5.80;;
17864;SDS011;9058;52.018;4.202;2022-07-29T12:29:16;11.98;;;5.38;;
17864;SDS011;9058;52.018;4.202;2022-07-29T12:31:43;19.02;;;5.53;;
17864;SDS011;9058;52.018;4.202;2022-07-29T12:34:10;16.25;;;5.40;;
17864;SDS011;9058;52.018;4.202;2022-07-29T12:36:36;12.55;;;4.78;;
17864;SDS011;9058;52.018;4.202;2022-07-29T12:39:03;12.20;;;3.88;;
17864;SDS011;9058;52.018;4.202;2022-07-29T12:41:40;14.95;;;4.15;;
17864;SDS011;9058;52.018;4.202;2022-07-29T12:44:06;11.23;;;3.47;;
17864;SDS011;9058;52.018;4.202;2022-07-29T12:46:33;16.50;;;5.53;;
17864;SDS011;9058;52.018;4.202;2022-07-29T12:48:59;14.27;;;4.32;;
17864;SDS011;9058;52.018;4.202;2022-07-29T12:51:28;21.20;;;6.80;;
17864;SDS011;9058;52.018;4.202;2022-07-29T12:54:03;16.60;;;6.20;;
17864;SDS011;9058;52.018;4.202;2022-07-29T12:56:29;12.63;;;4.85;;
17864;SDS011;9058;52.018;4.202;2022-07-29T12:58:57;13.70;;;5.50;;
17864;SDS011;9058;52.018;4.202;2022-07-29T13:01:24;14.02;;;4.93;;
17864;SDS011;9058;52.018;4.202;2022-07-29T13:03:52;11.60;;;4.00;;
17864;SDS011;9058;52.018;4.202;2022-07-29T13:06:27;25.75;;;7.72;;
17864;SDS011;9058;52.018;4.202;2022-07-29T13:09:00;17.17;;;6.75;;
17864;SDS011;9058;52.018;4.202;2022-07-29T13:11:28;16.35;;;6.05;;
17864;SDS011;9058;52.018;4.202;2022-07-29T13:13:54;12.48;;;6.00;;
17864;SDS011;9058;52.018;4.202;2022-07-29T13:16:22;34.38;;;10.27;;
17864;SDS011;9058;52.018;4.202;2022-07-29T13:18:48;18.92;;;5.82;;
17864;SDS011;9058;52.018;4.202;2022-07-29T13:21:15;16.02;;;5.65;;
17864;SDS011;9058;52.018;4.202;2022-07-29T13:23:42;9.50;;;4.93;;
17864;SDS011;9058;52.018;4.202;2022-07-29T13:26:08;8.65;;;4.75;;
17864;SDS011;9058;52.018;4.202;2022-07-29T13:28:36;16.45;;;5.88;;
17864;SDS011;9058;52.018;4.202;2022-07-29T13:31:03;22.90;;;7.45;;
17864;SDS011;9058;52.018;4.202;2022-07-29T13:36:33;7.13;;;3.40;;
17864;SDS011;9058;52.018;4.202;2022-07-29T13:39:00;10.70;;;3.78;;
17864;SDS011;9058;52.018;4.202;2022-07-29T13:41:27;14.18;;;5.00;;
17864;SDS011;9058;52.018;4.202;2022-07-29T13:43:54;19.17;;;5.93;;
17864;SDS011;9058;52.018;4.202;2022-07-29T13:46:21;14.65;;;5.10;;
17864;SDS011;9058;52.018;4.202;2022-07-29T13:48:47;16.98;;;5.75;;
17864;SDS011;9058;52.018;4.202;2022-07-29T13:51:13;10.80;;;3.67;;
17864;SDS011;9058;52.018;4.202;2022-07-29T13:53:41;14.27;;;5.72;;
17864;SDS011;9058;52.018;4.202;2022-07-29T13:56:07;12.80;;;4.63;;
17864;SDS011;9058;52.018;4.202;2022-07-29T13:58:34;13.63;;;4.80;;
17864;SDS011;9058;52.018;4.202;2022-07-29T14:01:01;15.18;;;5.30;;
17864;SDS011;9058;52.018;4.202;2022-07-29T14:03:28;14.90;;;4.55;;
17864;SDS011;9058;52.018;4.202;2022-07-29T14:05:55;17.02;;;5.35;;
17864;SDS011;9058;52.018;4.202;2022-07-29T14:08:24;8.20;;;2.90;;
17864;SDS011;9058;52.018;4.202;2022-07-29T14:10:52;11.18;;;3.50;;
17864;SDS011;9058;52.018;4.202;2022-07-29T14:13:19;16.70;;;4.18;;
17864;SDS011;9058;52.018;4.202;2022-07-29T14:15:45;13.02;;;4.15;;
17864;SDS011;9058;52.018;4.202;2022-07-29T14:18:11;14.15;;;4.00;;
17864;SDS011;9058;52.018;4.202;2022-07-29T14:20:38;6.68;;;2.42;;
17864;SDS011;9058;52.018;4.202;2022-07-29T14:23:04;7.50;;;2.63;;
17864;SDS011;9058;52.018;4.202;2022-07-29T14:25:31;8.90;;;2.70;;
17864;SDS011;9058;52.018;4.202;2022-07-29T14:27:58;11.82;;;4.22;;
17864;SDS011;9058;52.018;4.202;2022-07-29T14:30:25;6.70;;;2.10;;
17864;SDS011;9058;52.018;4.202;2022-07-29T14:32:52;11.35;;;3.20;;
17864;SDS011;9058;52.018;4.202;2022-07-29T14:35:19;12.20;;;2.95;;
17864;SDS011;9058;52.018;4.202;2022-07-29T14:37:45;8.27;;;2.60;;
17864;SDS011;9058;52.018;4.202;2022-07-29T14:40:12;6.65;;;1.77;;
17864;SDS011;9058;52.018;4.202;2022-07-29T14:42:38;5.70;;;1.90;;
17864;SDS011;9058;52.018;4.202;2022-07-29T14:45:08;4.63;;;1.65;;
17864;SDS011;9058;52.018;4.202;2022-07-29T14:47:34;5.65;;;2.03;;
17864;SDS011;9058;52.018;4.202;2022-07-29T14:50:01;7.38;;;2.30;;
17864;SDS011;9058;52.018;4.202;2022-07-29T14:52:27;7.57;;;2.20;;
17864;SDS011;9058;52.018;4.202;2022-07-29T14:54:54;13.57;;;3.33;;
17864;SDS011;9058;52.018;4.202;2022-07-29T14:57:20;4.88;;;2.00;;
17864;SDS011;9058;52.018;4.202;2022-07-29T14:59:46;3.90;;;1.42;;
17864;SDS011;9058;52.018;4.202;2022-07-29T15:02:14;5.25;;;1.45;;
17864;SDS011;9058;52.018;4.202;2022-07-29T15:04:41;4.65;;;1.80;;
17864;SDS011;9058;52.018;4.202;2022-07-29T15:07:09;5.85;;;1.67;;
17864;SDS011;9058;52.018;4.202;2022-07-29T15:09:36;3.38;;;1.60;;
17864;SDS011;9058;52.018;4.202;2022-07-29T15:12:02;6.22;;;1.70;;
17864;SDS011;9058;52.018;4.202;2022-07-29T15:14:29;7.55;;;2.03;;
17864;SDS011;9058;52.018;4.202;2022-07-29T15:16:56;5.32;;;1.60;;